ケープタウン の空港の天気 - METARとTAF

ケープタウン国際空港 ( FACT / CPT ) - 南アフリカ ケープタウン
飛行場実況気象(Metar)
観測時間10/22 14:00 SAST (10/22 12:00 UTC)
風向・風速南南西 8m/s
視程10km以上
天気現象
なし
気温22℃
湿度60%
気圧1015hPa
METARFACT 221200Z 20016KT CAVOK 22/14 Q1015 NOSIG
過去の天気等 Google飛行場航空写真 Wunderground天気予報

過去48時間のMETAR

飛行場予報(TAF)
発表時間: 10/22 12:00 SAST (10/22 10:00 UTC)
予報対象時間: 22日14時 SAST ~ 23日20時 SAST
風向・風速南 8m/s
視程10km以上
なし
23日4時 SAST から
風向・風速北北西 5m/s
視程10km以上
全天の8割程度の雲 雲底高度 300m
23日4時 SAST ~ 23日8時 SAST に 確率 40% で一時的に
視程3000m
天気現象もや
全天の8割程度の雲 雲底高度 120m
23日9時 SAST ~ 23日11時 SAST に徐々に
全天の4割程度の雲 雲底高度 460m
23日17時 SAST ~ 23日19時 SAST に徐々に
風向・風速南 5m/s
TAF FACT 221000Z 2212/2318 19015KT CAVOK TX28/2212Z TN14/2304Z
FM230200 34010KT 9999 BKN010
PROB40 TEMPO 2302/2306 3000 BR BKN004
BECMG 2307/2309 SCT015
BECMG 2315/2317 17010KT